createdAt,value
2022-12-01T00:01:09.167Z,38.55
2022-12-01T00:03:36.107Z,39.83
2022-12-01T00:06:04.849Z,41.40
2022-12-01T00:08:32.008Z,44.38
2022-12-01T00:11:10.047Z,48.03
2022-12-01T00:13:37.067Z,46.50
2022-12-01T00:16:16.866Z,40.30
2022-12-01T00:18:44.068Z,41.38
2022-12-01T00:21:18.008Z,41.63
2022-12-01T00:23:47.435Z,45.97
2022-12-01T00:26:15.172Z,41.45
2022-12-01T00:28:42.030Z,40.70
2022-12-01T00:31:09.848Z,43.42
2022-12-01T00:33:36.795Z,44.22
2022-12-01T00:36:04.187Z,43.95
2022-12-01T00:38:31.306Z,40.67
2022-12-01T00:40:58.227Z,44.60
2022-12-01T00:43:25.207Z,44.47
2022-12-01T00:45:52.200Z,41.10
2022-12-01T00:48:19.106Z,43.72
2022-12-01T00:50:45.977Z,46.30
2022-12-01T00:53:12.836Z,38.50
2022-12-01T00:55:40.474Z,39.03
2022-12-01T00:58:07.775Z,48.08
2022-12-01T01:00:34.807Z,43.85
2022-12-01T01:03:01.848Z,42.58
2022-12-01T01:05:28.747Z,45.60
2022-12-01T01:07:55.629Z,38.40
2022-12-01T01:10:23.007Z,47.08
2022-12-01T01:12:50.407Z,37.72
2022-12-01T01:15:17.368Z,39.72
2022-12-01T01:17:44.229Z,36.90
2022-12-01T01:20:11.572Z,38.13
2022-12-01T01:22:38.443Z,40.08
2022-12-01T01:25:05.668Z,41.47
2022-12-01T01:27:34.087Z,39.13
2022-12-01T01:30:00.907Z,39.73
2022-12-01T01:32:27.806Z,44.33
2022-12-01T01:34:54.668Z,48.72
2022-12-01T01:37:21.515Z,39.75
2022-12-01T01:39:48.771Z,39.13
2022-12-01T01:42:18.148Z,38.33
2022-12-01T01:44:51.746Z,37.30
2022-12-01T01:47:25.410Z,40.22
2022-12-01T01:49:53.015Z,39.47
2022-12-01T01:52:19.886Z,35.75
2022-12-01T01:54:48.109Z,39.67
2022-12-01T01:57:16.267Z,36.80
2022-12-01T01:59:45.681Z,39.88
2022-12-01T02:02:12.763Z,36.83
2022-12-01T02:04:46.325Z,30.83
2022-12-01T02:07:15.166Z,38.07
2022-12-01T02:09:41.988Z,35.80
2022-12-01T02:12:16.727Z,42.05
2022-12-01T02:15:02.269Z,34.03
2022-12-01T02:17:45.373Z,37.40
2022-12-01T02:20:36.886Z,39.23
2022-12-01T02:23:24.627Z,34.33
2022-12-01T02:26:02.067Z,30.88
2022-12-01T02:28:34.508Z,36.15
2022-12-01T02:31:09.250Z,30.52
2022-12-01T02:33:43.869Z,34.30
2022-12-01T02:36:22.322Z,34.72
2022-12-01T02:39:31.846Z,37.35
2022-12-01T02:42:50.288Z,35.25
2022-12-01T02:45:55.804Z,32.05
2022-12-01T02:48:27.246Z,32.43
2022-12-01T02:50:54.506Z,34.40
2022-12-01T02:53:21.448Z,34.95
2022-12-01T02:55:58.649Z,34.58
2022-12-01T02:58:25.568Z,31.70
2022-12-01T03:00:58.007Z,28.83
2022-12-01T03:03:36.567Z,32.88
2022-12-01T03:06:15.307Z,32.97
2022-12-01T03:09:08.926Z,27.77
2022-12-01T03:12:07.666Z,31.60
2022-12-01T03:14:45.605Z,35.50
2022-12-01T03:17:16.367Z,32.13
2022-12-01T03:19:53.787Z,30.15
2022-12-01T03:22:27.307Z,35.08
2022-12-01T03:24:54.926Z,29.95
2022-12-01T03:27:23.266Z,29.00
2022-12-01T03:29:51.382Z,26.65
2022-12-01T03:32:33.687Z,31.63
2022-12-01T03:35:04.606Z,29.70
2022-12-01T03:37:50.107Z,31.60
2022-12-01T03:40:18.527Z,28.87
2022-12-01T03:42:48.348Z,26.10
2022-12-01T03:45:22.347Z,28.73
2022-12-01T03:47:49.167Z,29.60
2022-12-01T03:50:16.607Z,27.65
2022-12-01T03:53:04.806Z,29.03
2022-12-01T03:55:32.332Z,26.20
2022-12-01T03:58:16.646Z,25.67
2022-12-01T04:00:43.947Z,26.40
2022-12-01T04:03:16.951Z,27.00
2022-12-01T04:05:43.868Z,26.00
2022-12-01T04:08:10.839Z,25.67
2022-12-01T04:10:37.760Z,27.05
2022-12-01T04:13:04.688Z,25.45
2022-12-01T04:15:31.527Z,24.58
2022-12-01T04:17:58.386Z,25.70
2022-12-01T04:20:25.246Z,25.13
2022-12-01T04:22:52.090Z,25.35
2022-12-01T04:25:18.946Z,25.02
2022-12-01T04:27:45.846Z,28.30
2022-12-01T04:30:13.368Z,24.37
2022-12-01T04:32:41.043Z,26.15
2022-12-01T04:35:09.187Z,27.85
2022-12-01T04:37:36.210Z,24.77
2022-12-01T04:40:03.408Z,22.15
2022-12-01T04:42:30.387Z,22.20
2022-12-01T04:44:57.268Z,26.52
2022-12-01T04:47:24.211Z,23.33
2022-12-01T04:49:51.344Z,24.15
2022-12-01T04:52:18.446Z,23.92
2022-12-01T04:54:45.267Z,23.07
2022-12-01T04:57:12.188Z,24.88
2022-12-01T04:59:39.028Z,24.13
2022-12-01T05:02:05.958Z,23.98
2022-12-01T05:04:34.286Z,21.40
2022-12-01T05:07:01.226Z,24.60
2022-12-01T05:09:28.108Z,22.58
2022-12-01T05:11:54.937Z,24.88
2022-12-01T05:14:21.787Z,23.30
2022-12-01T05:16:48.701Z,24.40
2022-12-01T05:19:34.330Z,22.57
2022-12-01T05:22:01.269Z,23.23
2022-12-01T05:24:28.207Z,20.15
2022-12-01T05:26:55.028Z,22.45
2022-12-01T05:29:21.908Z,23.17
2022-12-01T05:31:48.811Z,22.03
2022-12-01T05:34:15.846Z,21.92
2022-12-01T05:36:42.719Z,22.90
2022-12-01T05:39:09.548Z,18.88
2022-12-01T05:41:36.446Z,22.10
2022-12-01T05:44:03.401Z,21.20
2022-12-01T05:46:30.267Z,25.00
2022-12-01T05:48:57.181Z,21.35
2022-12-01T05:51:24.047Z,22.35
2022-12-01T05:53:50.966Z,23.92
2022-12-01T05:56:17.848Z,22.27
2022-12-01T05:58:44.787Z,21.73
2022-12-01T06:01:11.647Z,22.10
2022-12-01T06:03:38.569Z,21.67
2022-12-01T06:06:05.648Z,21.30
2022-12-01T06:08:32.529Z,23.67
2022-12-01T06:10:59.387Z,22.95
2022-12-01T06:13:26.349Z,23.08
2022-12-01T06:16:00.248Z,20.90
2022-12-01T06:18:27.788Z,21.85
2022-12-01T06:20:54.607Z,20.77
2022-12-01T06:23:23.453Z,20.83
2022-12-01T06:25:53.248Z,21.65
2022-12-01T06:28:20.188Z,20.52
2022-12-01T06:30:47.028Z,22.15
2022-12-01T06:33:13.887Z,22.50
2022-12-01T06:35:40.731Z,22.10
2022-12-01T06:38:07.609Z,22.08
2022-12-01T06:40:34.507Z,24.02
2022-12-01T06:43:02.808Z,21.95
2022-12-01T06:45:30.351Z,21.73
2022-12-01T06:47:57.567Z,21.73
2022-12-01T06:50:25.072Z,24.80
2022-12-01T06:52:52.919Z,25.67
2022-12-01T06:55:19.886Z,23.33
2022-12-01T06:57:46.993Z,24.97
2022-12-01T07:00:14.908Z,23.35
2022-12-01T07:02:42.119Z,23.20
2022-12-01T07:05:09.285Z,27.95
2022-12-01T07:07:37.564Z,25.30
2022-12-01T07:10:04.808Z,24.43
2022-12-01T07:12:31.968Z,24.65
2022-12-01T07:14:58.878Z,23.65
2022-12-01T07:17:25.867Z,24.30
2022-12-01T07:19:52.729Z,24.90
2022-12-01T07:22:19.608Z,22.37
2022-12-01T07:24:46.528Z,25.63
2022-12-01T07:27:13.469Z,20.70
2022-12-01T07:29:40.406Z,23.92
2022-12-01T07:32:07.306Z,23.80
2022-12-01T07:34:34.147Z,21.03
2022-12-01T07:37:00.990Z,23.35
2022-12-01T07:39:27.976Z,23.15
2022-12-01T07:41:54.812Z,23.08
2022-12-01T07:44:21.714Z,23.90
2022-12-01T07:46:48.528Z,24.17
2022-12-01T07:49:15.806Z,28.13
2022-12-01T07:51:42.648Z,23.35
2022-12-01T07:54:10.188Z,23.35
2022-12-01T07:56:37.690Z,25.98
2022-12-01T07:59:04.733Z,27.40
2022-12-01T08:01:31.754Z,25.98
2022-12-01T08:03:59.088Z,27.48
2022-12-01T08:06:26.328Z,22.67
2022-12-01T08:08:53.211Z,23.70
2022-12-01T08:11:22.388Z,23.83
2022-12-01T08:13:49.507Z,25.17
2022-12-01T08:16:18.767Z,24.13
2022-12-01T08:18:45.987Z,24.63
2022-12-01T08:21:14.612Z,26.85
2022-12-01T08:23:42.327Z,24.27
2022-12-01T08:26:16.848Z,26.67
2022-12-01T08:28:43.724Z,24.40
2022-12-01T08:31:19.065Z,28.27
2022-12-01T08:33:47.022Z,23.45
2022-12-01T08:36:14.125Z,28.20
2022-12-01T08:38:43.660Z,25.80
2022-12-01T08:41:10.589Z,21.85
2022-12-01T08:43:57.185Z,25.17
2022-12-01T08:46:25.526Z,25.58
2022-12-01T08:48:55.007Z,25.93
2022-12-01T08:51:21.878Z,24.65
2022-12-01T08:53:49.320Z,26.13
2022-12-01T08:56:20.300Z,26.30
2022-12-01T08:58:47.138Z,26.23
2022-12-01T09:01:15.605Z,27.60
2022-12-01T09:03:43.273Z,31.35
2022-12-01T09:06:12.387Z,32.03
2022-12-01T09:08:39.439Z,31.75
2022-12-01T09:11:08.362Z,34.55
2022-12-01T09:13:35.421Z,30.73
2022-12-01T09:16:07.266Z,32.55
2022-12-01T09:18:34.300Z,32.38
2022-12-01T09:21:01.367Z,31.20
2022-12-01T09:23:28.287Z,32.20
2022-12-01T09:25:55.187Z,32.80
2022-12-01T09:28:22.107Z,28.98
2022-12-01T09:30:49.014Z,31.92
2022-12-01T09:33:15.965Z,29.83
2022-12-01T09:35:42.829Z,32.45
2022-12-01T09:38:09.747Z,28.87
2022-12-01T09:40:40.848Z,31.23
2022-12-01T09:43:14.926Z,27.92
2022-12-01T09:45:44.428Z,29.17
2022-12-01T09:48:21.346Z,27.23
2022-12-01T09:50:48.232Z,29.70
2022-12-01T09:53:21.848Z,32.90
2022-12-01T09:55:49.205Z,31.17
2022-12-01T09:58:21.927Z,30.38
2022-12-01T10:00:49.630Z,29.58
2022-12-01T10:03:32.968Z,28.43
2022-12-01T10:06:26.739Z,27.85
2022-12-01T10:09:13.346Z,28.85
2022-12-01T10:11:41.772Z,25.48
2022-12-01T10:14:22.267Z,27.05
2022-12-01T10:17:22.507Z,28.87
2022-12-01T10:20:16.269Z,25.55
2022-12-01T10:22:43.068Z,25.60
2022-12-01T10:25:22.091Z,24.95
2022-12-01T10:28:13.473Z,25.15
2022-12-01T10:30:53.174Z,26.47
2022-12-01T10:33:27.466Z,22.83
2022-12-01T10:35:54.367Z,22.90
2022-12-01T10:38:33.107Z,24.67
2022-12-01T10:41:01.133Z,23.83
2022-12-01T10:43:57.771Z,25.03
2022-12-01T10:46:28.086Z,23.75
2022-12-01T10:48:59.408Z,23.30
2022-12-01T10:51:27.347Z,22.08
2022-12-01T10:54:06.707Z,23.30
2022-12-01T10:56:33.648Z,21.90
2022-12-01T10:59:03.728Z,20.98
2022-12-01T11:01:35.955Z,21.55
2022-12-01T11:04:09.208Z,20.35
2022-12-01T11:06:36.528Z,20.02
2022-12-01T11:09:06.222Z,17.60
2022-12-01T11:11:41.994Z,21.20
2022-12-01T11:14:19.627Z,21.38
2022-12-01T11:16:48.149Z,19.60
2022-12-01T11:19:29.000Z,19.35
2022-12-01T11:21:57.939Z,17.70
2022-12-01T11:24:42.313Z,19.73
2022-12-01T11:27:20.375Z,16.88
2022-12-01T11:29:49.576Z,17.30
2022-12-01T11:32:22.803Z,18.23
2022-12-01T11:34:52.513Z,19.13
2022-12-01T11:37:20.891Z,17.05
2022-12-01T11:39:48.595Z,16.65
2022-12-01T11:42:27.189Z,18.05
2022-12-01T11:45:05.331Z,15.27
2022-12-01T11:47:32.153Z,17.53
2022-12-01T11:50:22.729Z,16.08
2022-12-01T11:52:49.499Z,15.05
2022-12-01T11:55:16.334Z,18.70
2022-12-01T11:57:44.053Z,16.65
2022-12-01T12:00:14.889Z,15.63
2022-12-01T12:02:56.882Z,15.18
2022-12-01T12:05:45.851Z,14.18
2022-12-01T12:08:37.464Z,14.65
2022-12-01T12:11:17.202Z,14.27
2022-12-01T12:14:21.616Z,13.20
2022-12-01T12:17:03.355Z,13.25
2022-12-01T12:20:10.463Z,14.13
2022-12-01T12:22:43.480Z,12.98
2022-12-01T12:25:16.322Z,13.05
2022-12-01T12:28:02.300Z,14.47
2022-12-01T12:30:30.160Z,13.23
2022-12-01T12:33:18.814Z,13.25
2022-12-01T12:36:30.283Z,12.52
2022-12-01T12:39:06.533Z,12.85
2022-12-01T12:41:46.732Z,13.23
2022-12-01T12:44:36.841Z,14.52
2022-12-01T12:47:41.795Z,15.18
2022-12-01T12:50:36.449Z,13.68
2022-12-01T12:53:06.792Z,11.90
2022-12-01T12:55:48.705Z,12.50
2022-12-01T12:58:38.014Z,12.65
2022-12-01T13:01:17.693Z,12.68
2022-12-01T13:03:47.192Z,11.00
2022-12-01T13:06:18.067Z,12.25
2022-12-01T13:08:50.875Z,12.37
2022-12-01T13:11:27.757Z,11.70
2022-12-01T13:14:04.053Z,10.48
2022-12-01T13:16:41.933Z,11.68
2022-12-01T13:19:34.023Z,13.68
2022-12-01T13:22:01.001Z,12.70
2022-12-01T13:24:29.677Z,11.57
2022-12-01T13:27:17.750Z,10.63
2022-12-01T13:29:47.050Z,11.82
2022-12-01T13:32:32.564Z,10.85
2022-12-01T13:34:59.755Z,10.63
2022-12-01T13:37:36.857Z,10.45
2022-12-01T13:40:33.487Z,11.05
2022-12-01T13:43:10.933Z,11.85
2022-12-01T13:45:38.296Z,11.35
2022-12-01T13:48:06.035Z,11.00
2022-12-01T13:50:59.833Z,9.93
2022-12-01T13:53:36.565Z,12.07
2022-12-01T13:56:03.296Z,11.02
2022-12-01T13:58:33.041Z,13.00
2022-12-01T14:01:22.168Z,12.93
2022-12-01T14:04:11.181Z,12.02
2022-12-01T14:06:58.892Z,11.18
2022-12-01T14:09:52.911Z,11.65
2022-12-01T14:12:26.713Z,13.00
2022-12-01T14:15:04.303Z,10.70
2022-12-01T14:17:32.754Z,10.93
2022-12-01T14:20:08.692Z,9.52
2022-12-01T14:22:38.881Z,11.60
2022-12-01T14:25:25.883Z,10.35
2022-12-01T14:27:54.930Z,11.20
2022-12-01T14:30:40.871Z,10.90
2022-12-01T14:33:45.101Z,12.02
2022-12-01T14:36:24.178Z,12.00
2022-12-01T14:39:05.990Z,11.50
2022-12-01T14:41:41.431Z,10.23
2022-12-01T14:44:31.374Z,11.80
2022-12-01T14:47:00.175Z,14.98
2022-12-01T14:49:37.842Z,12.65
2022-12-01T14:52:06.045Z,14.90
2022-12-01T14:54:51.573Z,15.80
2022-12-01T14:57:20.521Z,14.38
2022-12-01T14:59:47.341Z,16.23
2022-12-01T15:02:14.228Z,16.13
2022-12-01T15:05:18.765Z,14.65
2022-12-01T15:07:56.258Z,13.57
2022-12-01T15:10:35.313Z,14.52
2022-12-01T15:13:30.950Z,13.95
2022-12-01T15:16:02.804Z,14.25
2022-12-01T15:18:32.312Z,15.30
2022-12-01T15:21:07.044Z,14.53
2022-12-01T15:23:33.882Z,12.45
2022-12-01T15:26:00.863Z,14.82
2022-12-01T15:28:35.122Z,14.57
2022-12-01T15:31:12.920Z,13.20
2022-12-01T15:33:47.771Z,13.30
2022-12-01T15:36:14.899Z,13.52
2022-12-01T15:38:42.721Z,15.00
2022-12-01T15:41:32.275Z,15.93
2022-12-01T15:44:00.802Z,14.10
2022-12-01T15:46:29.878Z,14.80
2022-12-01T15:49:16.702Z,13.90
2022-12-01T15:51:43.509Z,13.80
2022-12-01T15:54:20.370Z,15.45
2022-12-01T15:56:47.209Z,15.57
2022-12-01T15:59:13.970Z,15.17
2022-12-01T16:01:42.003Z,12.95
2022-12-01T16:04:20.750Z,17.25
2022-12-01T16:07:01.830Z,15.95
2022-12-01T16:09:39.492Z,15.57
2022-12-01T16:12:09.289Z,17.40
2022-12-01T16:14:36.616Z,20.75
2022-12-01T16:17:04.340Z,17.73
2022-12-01T16:19:31.993Z,19.02
2022-12-01T16:22:15.000Z,20.10
2022-12-01T16:24:49.293Z,18.47
2022-12-01T16:27:22.194Z,19.02
2022-12-01T16:29:57.722Z,20.65
2022-12-01T16:32:31.998Z,20.27
2022-12-01T16:34:59.226Z,19.83
2022-12-01T16:37:26.721Z,20.03
2022-12-01T16:39:53.931Z,20.90
2022-12-01T16:42:23.818Z,20.50
2022-12-01T16:44:51.501Z,22.00
2022-12-01T16:47:23.630Z,19.70
2022-12-01T16:49:50.882Z,22.40
2022-12-01T16:55:04.993Z,18.95
2022-12-01T16:57:31.829Z,22.83
2022-12-01T16:59:58.750Z,21.10
2022-12-01T17:02:25.658Z,21.07
2022-12-01T17:04:52.713Z,19.80
2022-12-01T17:07:19.915Z,20.38
2022-12-01T17:09:46.912Z,20.10
2022-12-01T17:12:13.770Z,21.70
2022-12-01T17:14:40.611Z,22.97
2022-12-01T17:17:07.446Z,21.42
2022-12-01T17:19:34.382Z,20.55
2022-12-01T17:22:01.223Z,23.30
2022-12-01T17:24:28.081Z,22.02
2022-12-01T17:26:54.961Z,21.03
2022-12-01T17:29:22.091Z,20.75
2022-12-01T17:31:49.044Z,21.92
2022-12-01T17:34:15.882Z,23.63
2022-12-01T17:36:42.739Z,23.77
2022-12-01T17:39:09.572Z,24.73
2022-12-01T17:41:36.420Z,25.58
2022-12-01T17:44:03.916Z,21.52
2022-12-01T17:46:31.066Z,21.90
2022-12-01T17:48:58.530Z,25.08
2022-12-01T17:51:25.381Z,22.23
2022-12-01T17:53:53.941Z,24.33
2022-12-01T17:56:20.709Z,24.33
2022-12-01T17:58:49.484Z,22.45
2022-12-01T18:01:17.604Z,22.67
2022-12-01T18:03:44.704Z,28.60
2022-12-01T18:06:11.639Z,27.38
2022-12-01T18:08:38.693Z,25.13
2022-12-01T18:11:13.080Z,25.70
2022-12-01T18:13:41.373Z,26.40
2022-12-01T18:16:09.194Z,25.13
2022-12-01T18:18:37.246Z,27.83
2022-12-01T18:21:08.321Z,23.77
2022-12-01T18:23:35.160Z,25.35
2022-12-01T18:26:16.172Z,23.77
2022-12-01T18:28:43.663Z,24.03
2022-12-01T18:31:15.269Z,23.98
2022-12-01T18:33:43.170Z,24.38
2022-12-01T18:36:12.390Z,23.58
2022-12-01T18:38:39.731Z,23.65
2022-12-01T18:41:06.744Z,23.87
2022-12-01T18:43:33.691Z,22.50
2022-12-01T18:46:00.611Z,24.50
2022-12-01T18:48:27.580Z,20.85
2022-12-01T18:50:59.279Z,21.80
2022-12-01T18:53:26.531Z,27.87
2022-12-01T18:55:53.401Z,26.17
2022-12-01T18:58:20.239Z,24.90
2022-12-01T19:00:47.130Z,25.95
2022-12-01T19:03:14.191Z,23.77
2022-12-01T19:05:41.046Z,28.90
2022-12-01T19:08:08.298Z,24.63
2022-12-01T19:10:35.203Z,26.13
2022-12-01T19:13:02.056Z,24.38
2022-12-01T19:15:29.089Z,26.20
2022-12-01T19:17:55.941Z,24.53
2022-12-01T19:20:22.800Z,24.73
2022-12-01T19:22:49.620Z,29.48
2022-12-01T19:25:16.451Z,26.27
2022-12-01T19:27:43.403Z,29.40
2022-12-01T19:30:10.650Z,26.70
2022-12-01T19:32:37.601Z,30.15
2022-12-01T19:35:04.679Z,24.52
2022-12-01T19:37:31.499Z,26.75
2022-12-01T19:39:58.292Z,29.15
2022-12-01T19:42:25.161Z,27.63
2022-12-01T19:44:52.170Z,28.38
2022-12-01T19:47:22.350Z,28.45
2022-12-01T19:49:49.377Z,28.05
2022-12-01T19:52:16.180Z,30.30
2022-12-01T19:54:43.201Z,26.97
2022-12-01T19:57:09.992Z,33.05
2022-12-01T19:59:36.820Z,31.75
2022-12-01T20:02:03.692Z,27.63
2022-12-01T20:04:30.729Z,31.13
2022-12-01T20:06:57.533Z,29.03
2022-12-01T20:09:24.410Z,27.55
2022-12-01T20:11:51.252Z,32.25
2022-12-01T20:14:18.111Z,27.80
2022-12-01T20:16:45.000Z,28.23
2022-12-01T20:19:11.959Z,31.40
2022-12-01T20:21:42.431Z,28.13
2022-12-01T20:24:12.468Z,25.05
2022-12-01T20:26:41.643Z,30.83
2022-12-01T20:29:10.713Z,33.03
2022-12-01T20:31:37.653Z,29.30
2022-12-01T20:34:07.867Z,28.63
2022-12-01T20:36:34.721Z,27.73
2022-12-01T20:39:01.527Z,27.50
2022-12-01T20:41:28.421Z,31.48
2022-12-01T20:43:55.210Z,28.17
2022-12-01T20:46:22.067Z,27.17
2022-12-01T20:48:49.011Z,29.63
2022-12-01T20:51:15.921Z,28.67
2022-12-01T20:53:59.561Z,29.73
2022-12-01T20:56:30.051Z,29.03
2022-12-01T20:58:56.879Z,28.52
2022-12-01T21:01:23.928Z,34.08
2022-12-01T21:03:53.680Z,29.48
2022-12-01T21:06:20.836Z,29.25
2022-12-01T21:08:49.541Z,27.80
2022-12-01T21:11:40.901Z,27.75
2022-12-01T21:14:11.451Z,30.65
2022-12-01T21:16:38.345Z,31.48
2022-12-01T21:19:24.549Z,28.70
2022-12-01T21:21:51.353Z,28.30
2022-12-01T21:24:20.045Z,29.98
2022-12-01T21:27:14.030Z,32.10
2022-12-01T21:29:42.440Z,28.80
2022-12-01T21:32:16.891Z,28.05
2022-12-01T21:34:43.831Z,27.80
2022-12-01T21:37:24.629Z,28.65
2022-12-01T21:39:52.411Z,27.30
2022-12-01T21:42:21.657Z,33.17
2022-12-01T21:44:48.838Z,29.10
2022-12-01T21:47:20.817Z,32.50
2022-12-01T21:49:49.783Z,30.45
2022-12-01T21:52:19.240Z,34.15
2022-12-01T21:54:46.171Z,31.30
2022-12-01T21:57:42.751Z,32.38
2022-12-01T22:00:30.160Z,29.37
2022-12-01T22:03:04.231Z,35.80
2022-12-01T22:05:38.216Z,31.67
2022-12-01T22:08:12.681Z,33.65
2022-12-01T22:11:19.009Z,34.67
2022-12-01T22:13:50.203Z,31.07
2022-12-01T22:16:25.697Z,32.00
2022-12-01T22:18:53.782Z,35.88
2022-12-01T22:21:28.453Z,33.63
2022-12-01T22:24:32.571Z,33.95
2022-12-01T22:27:05.432Z,32.50
2022-12-01T22:29:38.161Z,35.03
2022-12-01T22:32:17.145Z,35.83
2022-12-01T22:34:51.238Z,36.28
2022-12-01T22:37:24.446Z,35.63
2022-12-01T22:39:55.641Z,40.50
2022-12-01T22:42:33.120Z,37.03
2022-12-01T22:45:23.784Z,36.97
2022-12-01T22:47:51.000Z,33.83
2022-12-01T22:50:30.141Z,37.28
2022-12-01T22:53:02.421Z,34.17
2022-12-01T22:55:29.300Z,39.22
2022-12-01T22:57:56.141Z,36.03
2022-12-01T23:00:23.561Z,35.55
2022-12-01T23:02:51.228Z,38.00
2022-12-01T23:05:26.300Z,35.10
2022-12-01T23:07:53.521Z,37.08
2022-12-01T23:10:20.820Z,39.67
2022-12-01T23:12:49.121Z,40.20
2022-12-01T23:15:21.741Z,35.17
2022-12-01T23:17:49.220Z,35.17
2022-12-01T23:20:34.819Z,35.35
2022-12-01T23:23:07.220Z,37.95
2022-12-01T23:25:34.936Z,34.00
2022-12-01T23:28:06.161Z,40.08
2022-12-01T23:30:33.179Z,35.57
2022-12-01T23:33:22.672Z,36.65
2022-12-01T23:36:12.013Z,37.53
2022-12-01T23:38:44.061Z,32.20
2022-12-01T23:41:33.562Z,38.88
2022-12-01T23:44:22.541Z,37.63
2022-12-01T23:46:51.235Z,37.67
2022-12-01T23:49:20.922Z,33.75
2022-12-01T23:51:50.230Z,35.88
2022-12-01T23:54:24.403Z,36.85
2022-12-01T23:57:21.960Z,36.10
2022-12-01T23:59:49.661Z,33.42
